»·PEaware :: ANA457 KBFI-KRNO

ANA457 :: KBFI-KRNO

FLIGHT INFORMATION

Flight Status: Arrived
Operator:
All Nippon Airways
More flights by this operator :: More flights under this callsign
Pilot: Alan S. (10569)
Aircraft: Unknown
(B748)
More flights by this aircraft type
Origin: KBFI Boeing Field/King Co Intl
United States
Destination: KRNO Reno/Tahoe Intl
United States
More flights between these airports :: More routes between these airports
Route: +SEA J5 LKV GASSI ANAHO2
File this flight plan on PilotEdge
Remarks: ALL NIPPON twitch.tv / aerosimgaming
Altitude:
(Current/Filed)
35,000ft
Speed:
(Current/Filed)
500kts
Departed: 24-Jan-17 04:18 PM
Arrived: 24-Jan-17 05:37 PM
Distance/Time
Traveled:
494nm/1:19
Distance/Time
To Go:
Arrived

Flight Plot

Page will automatically refresh every two minutes.

Flight plan parsing failed; only flown route is shown


Map Options




Map Legend


Flown Route
Filed Route
Departure Airport
Arrival Airport
Navaid (VOR, NDB)
Fix

Horizontal Profiles

Position Reports

Time Latitude Longitude Heading Altitude Ground
Speed
24-Jan-17 15:39 47.538357 -122.312453 241 25ft 0kts
24-Jan-17 15:40 47.538357 -122.312453 241 25ft 0kts
24-Jan-17 15:41 47.538357 -122.312453 241 25ft 0kts
24-Jan-17 15:42 47.538357 -122.312453 241 25ft 0kts
24-Jan-17 15:43 47.538357 -122.312453 241 25ft 0kts
24-Jan-17 15:44 47.538357 -122.312453 241 25ft 0kts
24-Jan-17 15:45 47.538357 -122.312453 241 25ft 0kts
24-Jan-17 15:46 47.538357 -122.312453 241 25ft 0kts
24-Jan-17 15:47 47.538357 -122.312453 241 25ft 0kts
24-Jan-17 15:48 47.538357 -122.312453 241 25ft 0kts
24-Jan-17 15:49 47.538357 -122.312453 241 25ft 0kts
24-Jan-17 15:50 47.538357 -122.312453 241 25ft 0kts
24-Jan-17 15:51 47.538357 -122.312453 241 25ft 0kts
24-Jan-17 15:52 47.538357 -122.312453 241 25ft 0kts
24-Jan-17 15:53 47.538356 -122.312457 241 25ft 0kts
24-Jan-17 15:54 47.538341 -122.312496 241 25ft 0kts
24-Jan-17 15:55 47.538278 -122.312666 241 25ft 0kts
24-Jan-17 15:59 47.538348 -122.312445 242 25ft 0kts
24-Jan-17 16:00 47.538348 -122.312445 242 25ft 0kts
24-Jan-17 16:01 47.538348 -122.312445 242 25ft 0kts
24-Jan-17 16:02 47.538348 -122.312445 242 25ft 0kts
24-Jan-17 16:03 47.538348 -122.312445 242 25ft 0kts
24-Jan-17 16:04 47.538348 -122.312445 242 25ft 0kts
24-Jan-17 16:05 47.538348 -122.312445 242 25ft 0kts
24-Jan-17 16:06 47.538348 -122.312445 242 25ft 0kts
24-Jan-17 16:07 47.538348 -122.312445 242 25ft 0kts
24-Jan-17 16:08 47.538348 -122.312445 242 25ft 0kts
24-Jan-17 16:09 47.538348 -122.312445 242 25ft 0kts
24-Jan-17 16:10 47.538348 -122.312445 242 25ft 0kts
24-Jan-17 16:11 47.538348 -122.312445 242 25ft 0kts
24-Jan-17 16:12 47.538348 -122.312445 242 25ft 0kts
24-Jan-17 16:13 47.538287 -122.312616 243 25ft 2kts
24-Jan-17 16:14 47.539399 -122.313559 53 25ft 10kts
24-Jan-17 16:15 47.539765 -122.312639 62 25ft 0kts
24-Jan-17 16:16 47.540692 -122.313075 328 25ft 15kts
24-Jan-17 16:17 47.541594 -122.312195 152 25ft 0kts
24-Jan-17 16:18 47.534537 -122.306277 150 26ft 150kts
24-Jan-17 16:19 47.493520 -122.272385 154 1948ft 181kts
24-Jan-17 16:20 47.443618 -122.235302 152 3764ft 241kts
24-Jan-17 16:21 47.382981 -122.185349 163 6600ft 274kts
24-Jan-17 16:22 47.309430 -122.168827 174 10269ft 280kts
24-Jan-17 16:23 47.225145 -122.146701 179 13101ft 320kts
24-Jan-17 16:24 47.130956 -122.135424 178 15828ft 367kts
24-Jan-17 16:25 47.027053 -122.121343 179 19300ft 389kts
24-Jan-17 16:26 46.917025 -122.105053 173 22672ft 413kts
24-Jan-17 16:27 46.820844 -122.070440 167 23522ft 424kts
24-Jan-17 16:28 46.705648 -122.022460 167 26838ft 445kts
24-Jan-17 16:29 46.583363 -121.975199 167 30194ft 465kts
24-Jan-17 16:30 46.459431 -121.927669 168 34079ft 463kts
24-Jan-17 16:31 46.333053 -121.879379 167 35209ft 507kts
24-Jan-17 16:32 46.195475 -121.826945 167 35185ft 514kts
24-Jan-17 16:33 46.057766 -121.774482 167 35186ft 514kts
24-Jan-17 16:34 45.918966 -121.722117 166 35192ft 540kts
24-Jan-17 16:35 45.787174 -121.673038 164 35178ft 540kts
24-Jan-17 16:36 45.642715 -121.619240 164 35181ft 541kts
24-Jan-17 16:37 45.497514 -121.565203 164 35183ft 541kts
24-Jan-17 16:38 45.352292 -121.511446 164 35185ft 541kts
24-Jan-17 16:39 45.205825 -121.457553 164 35196ft 545kts
24-Jan-17 16:40 45.060843 -121.404513 164 35190ft 542kts
24-Jan-17 16:41 44.915185 -121.351450 164 35191ft 542kts
24-Jan-17 16:42 44.784955 -121.303606 164 35177ft 543kts
24-Jan-17 16:43 44.641424 -121.251363 165 35101ft 544kts
24-Jan-17 16:44 44.495369 -121.199014 165 35101ft 544kts
24-Jan-17 16:45 44.349569 -121.147067 165 35103ft 544kts
24-Jan-17 16:46 44.204223 -121.095478 165 35106ft 545kts
24-Jan-17 16:47 44.058067 -121.043854 165 35108ft 545kts
24-Jan-17 16:48 43.911548 -120.992427 165 35113ft 544kts
24-Jan-17 16:49 43.773485 -120.944475 165 35097ft 546kts
24-Jan-17 16:50 43.626635 -120.893702 165 35100ft 546kts
24-Jan-17 16:51 43.479434 -120.842714 165 35102ft 547kts
24-Jan-17 16:52 43.332585 -120.792086 165 35104ft 547kts
24-Jan-17 16:53 43.185323 -120.741713 165 35107ft 548kts
24-Jan-17 16:54 43.037868 -120.691461 165 35109ft 548kts
24-Jan-17 16:55 42.896752 -120.643531 165 35129ft 561kts
24-Jan-17 16:56 42.751166 -120.594702 165 35099ft 548kts
24-Jan-17 16:57 42.603750 -120.545126 165 35101ft 549kts
24-Jan-17 16:58 42.458159 -120.487562 154 35105ft 548kts
24-Jan-17 16:59 42.326240 -120.387357 144 35106ft 545kts
24-Jan-17 17:00 42.202136 -120.283274 147 35105ft 546kts
24-Jan-17 17:01 42.071084 -120.181010 148 35108ft 547kts
24-Jan-17 17:02 41.938856 -120.081267 148 35110ft 547kts
24-Jan-17 17:03 41.812531 -119.986390 148 35097ft 548kts
24-Jan-17 17:04 41.679051 -119.886587 148 35101ft 547kts
24-Jan-17 17:05 41.546550 -119.787588 149 35100ft 549kts
24-Jan-17 17:06 41.413080 -119.690934 150 35098ft 549kts
24-Jan-17 17:07 41.279225 -119.594317 149 35100ft 549kts
24-Jan-17 17:08 41.145826 -119.495674 148 35105ft 549kts
24-Jan-17 17:09 41.013762 -119.396961 148 34828ft 541kts
24-Jan-17 17:10 40.896943 -119.309015 146 33510ft 537kts
24-Jan-17 17:11 40.773085 -119.214101 148 32054ft 543kts
24-Jan-17 17:12 40.644567 -119.121330 148 30373ft 520kts
24-Jan-17 17:13 40.511650 -119.044013 176 28592ft 518kts
24-Jan-17 17:14 40.390799 -119.110462 230 26877ft 466kts
24-Jan-17 17:15 40.291482 -119.217074 216 25368ft 465kts
24-Jan-17 17:16 40.175476 -119.288170 206 23895ft 459kts
24-Jan-17 17:17 40.062217 -119.345404 208 22494ft 413kts
24-Jan-17 17:18 39.966632 -119.395802 202 21266ft 344kts
24-Jan-17 17:19 39.881425 -119.441722 197 20485ft 358kts
24-Jan-17 17:20 39.787290 -119.491324 197 19408ft 392kts
24-Jan-17 17:21 39.685197 -119.550293 203 18018ft 402kts
24-Jan-17 17:22 39.578509 -119.564702 173 16631ft 391kts
24-Jan-17 17:23 39.471648 -119.549937 173 15233ft 385kts
24-Jan-17 17:24 39.366934 -119.534958 173 13836ft 374kts
24-Jan-17 17:25 39.265571 -119.521053 181 12429ft 357kts
24-Jan-17 17:26 39.175105 -119.544930 193 10961ft 296kts
24-Jan-17 17:27 39.102393 -119.577939 225 9992ft 272kts
24-Jan-17 17:28 39.091133 -119.666262 292 9703ft 273kts
24-Jan-17 17:29 39.144235 -119.728011 329 9006ft 268kts
24-Jan-17 17:30 39.211388 -119.768364 349 9004ft 263kts
24-Jan-17 17:31 39.275530 -119.770790 0 8968ft 197kts
24-Jan-17 17:32 39.329399 -119.768131 1 8354ft 187kts
24-Jan-17 17:33 39.376648 -119.768557 355 6963ft 155kts
24-Jan-17 17:34 39.418623 -119.769163 358 5980ft 150kts
24-Jan-17 17:35 39.459419 -119.769196 359 5059ft 143kts
24-Jan-17 17:36 39.497667 -119.769278 359 4424ft 69kts
24-Jan-17 17:37 39.503774 -119.771161 306 4424ft 5kts
24-Jan-17 17:38 39.507028 -119.771497 358 4424ft 27kts
24-Jan-17 17:39 39.509075 -119.774260 274 4424ft 12kts
24-Jan-17 17:40 39.509564 -119.775469 331 4424ft 0kts
24-Jan-17 17:41 39.509565 -119.775470 331 4424ft 0kts
24-Jan-17 17:42 39.509565 -119.775470 331 4424ft 0kts
24-Jan-17 17:43 39.509565 -119.775470 331 4424ft 0kts
24-Jan-17 17:44 39.509565 -119.775470 331 4424ft 0kts
24-Jan-17 17:45 39.509565 -119.775470 331 4424ft 0kts

Navigation Log

Ident Type
Flight plan parsing failed, navigation log unavailable